Terminal Aerodrome Forecast
Issued by NWS Detroit/Pontiac, MI

Home | Current Version | Previous Version | Text Only | Print | Product List | Glossary On
Versions: 1 2 3 4 5 6 7 8 9 10 11 12 13 14 15 16 17 18 19 20 21 22 23 24 25
023
FTUS43 KDTX 250525
TAFDTW
TAF
KDTW 250525Z 2506/2612 20005KT P6SM SCT070 BKN250
     FM251400 22010KT P6SM BKN250
     FM252000 19008KT P6SM SCT060 BKN200
     FM260100 19005KT P6SM BKN200
     FM260900 19005KT P6SM -SHRA SCT050 BKN080=

USA.gov is the U.S. government's official web portal to all federal, state and local government web resources and services.